sensor_id;sensor_type;location;lat;lon;timestamp;pressure;altitude;pressure_sealevel;temperature;humidity
42105;BME280;68365;51.472;5.712;2023-05-07T00:00:37;101389.88;;;18.41;100.00
42105;BME280;68365;51.472;5.712;2023-05-07T00:03:03;101396.16;;;18.40;100.00
42105;BME280;68365;51.472;5.712;2023-05-07T00:05:29;101399.59;;;18.40;100.00
42105;BME280;68365;51.472;5.712;2023-05-07T00:07:55;101391.91;;;18.39;100.00
42105;BME280;68365;51.472;5.712;2023-05-07T00:10:21;101399.41;;;18.42;100.00
42105;BME280;68365;51.472;5.712;2023-05-07T00:12:47;101398.19;;;18.38;100.00
42105;BME280;68365;51.472;5.712;2023-05-07T00:15:12;101403.03;;;18.41;100.00
42105;BME280;68365;51.472;5.712;2023-05-07T00:17:38;101405.03;;;18.39;100.00
42105;BME280;68365;51.472;5.712;2023-05-07T00:20:05;101396.34;;;18.38;100.00
42105;BME280;68365;51.472;5.712;2023-05-07T00:22:31;101392.91;;;18.38;100.00
42105;BME280;68365;51.472;5.712;2023-05-07T00:24:58;101394.72;;;18.37;100.00
42105;BME280;68365;51.472;5.712;2023-05-07T00:27:25;101392.09;;;18.37;100.00
42105;BME280;68365;51.472;5.712;2023-05-07T00:29:51;101386.81;;;18.37;100.00
42105;BME280;68365;51.472;5.712;2023-05-07T00:32:16;101375.69;;;18.35;100.00
42105;BME280;68365;51.472;5.712;2023-05-07T00:34:43;101371.28;;;18.36;100.00
42105;BME280;68365;51.472;5.712;2023-05-07T00:37:09;101375.50;;;18.37;100.00
42105;BME280;68365;51.472;5.712;2023-05-07T00:39:35;101369.63;;;18.35;100.00
42105;BME280;68365;51.472;5.712;2023-05-07T00:42:01;101377.34;;;18.36;100.00
42105;BME280;68365;51.472;5.712;2023-05-07T00:44:28;101374.72;;;18.36;100.00
42105;BME280;68365;51.472;5.712;2023-05-07T00:46:57;101369.81;;;18.33;100.00
42105;BME280;68365;51.472;5.712;2023-05-07T00:49:28;101367.00;;;18.35;100.00
42105;BME280;68365;51.472;5.712;2023-05-07T00:51:56;101365.41;;;18.34;100.00
42105;BME280;68365;51.472;5.712;2023-05-07T00:54:22;101353.66;;;18.29;100.00
42105;BME280;68365;51.472;5.712;2023-05-07T00:56:48;101364.56;;;18.33;100.00
42105;BME280;68365;51.472;5.712;2023-05-07T00:59:14;101359.31;;;18.33;100.00
42105;BME280;68365;51.472;5.712;2023-05-07T01:01:40;101366.56;;;18.31;100.00
42105;BME280;68365;51.472;5.712;2023-05-07T01:04:06;101367.19;;;18.33;100.00
42105;BME280;68365;51.472;5.712;2023-05-07T01:06:32;101367.41;;;18.32;100.00
42105;BME280;68365;51.472;5.712;2023-05-07T01:08:59;101366.41;;;18.33;100.00
42105;BME280;68365;51.472;5.712;2023-05-07T01:11:26;101373.47;;;18.32;100.00
42105;BME280;68365;51.472;5.712;2023-05-07T01:13:52;101370.22;;;18.30;100.00
42105;BME280;68365;51.472;5.712;2023-05-07T01:16:18;101381.34;;;18.32;100.00
42105;BME280;68365;51.472;5.712;2023-05-07T01:18:44;101378.91;;;18.30;100.00
42105;BME280;68365;51.472;5.712;2023-05-07T01:21:14;101385.19;;;18.29;100.00
42105;BME280;68365;51.472;5.712;2023-05-07T01:23:41;101371.22;;;18.29;100.00
42105;BME280;68365;51.472;5.712;2023-05-07T01:26:07;101379.09;;;18.29;100.00
42105;BME280;68365;51.472;5.712;2023-05-07T01:28:33;101369.22;;;18.31;100.00
42105;BME280;68365;51.472;5.712;2023-05-07T01:31:02;101358.31;;;18.27;100.00
42105;BME280;68365;51.472;5.712;2023-05-07T01:33:33;101358.09;;;18.29;100.00
42105;BME280;68365;51.472;5.712;2023-05-07T01:36:00;101359.09;;;18.28;100.00
42105;BME280;68365;51.472;5.712;2023-05-07T01:38:29;101350.41;;;18.27;100.00
42105;BME280;68365;51.472;5.712;2023-05-07T01:40:56;101354.66;;;18.28;100.00
42105;BME280;68365;51.472;5.712;2023-05-07T01:43:22;101345.97;;;18.28;100.00
42105;BME280;68365;51.472;5.712;2023-05-07T01:45:48;101343.53;;;18.26;100.00
42105;BME280;68365;51.472;5.712;2023-05-07T01:48:15;101345.16;;;18.27;100.00
42105;BME280;68365;51.472;5.712;2023-05-07T01:50:42;101349.56;;;18.27;100.00
42105;BME280;68365;51.472;5.712;2023-05-07T01:53:08;101341.09;;;18.25;100.00
42105;BME280;68365;51.472;5.712;2023-05-07T01:55:34;101351.59;;;18.25;100.00
42105;BME280;68365;51.472;5.712;2023-05-07T01:58:02;101351.22;;;18.28;100.00
42105;BME280;68365;51.472;5.712;2023-05-07T02:00:28;101335.03;;;18.24;100.00
42105;BME280;68365;51.472;5.712;2023-05-07T02:02:54;101342.72;;;18.26;100.00
42105;BME280;68365;51.472;5.712;2023-05-07T02:05:20;101330.97;;;18.22;100.00
42105;BME280;68365;51.472;5.712;2023-05-07T02:07:46;101333.19;;;18.25;100.00
42105;BME280;68365;51.472;5.712;2023-05-07T02:10:12;101336.03;;;18.23;100.00
42105;BME280;68365;51.472;5.712;2023-05-07T02:12:38;101328.16;;;18.23;100.00
42105;BME280;68365;51.472;5.712;2023-05-07T02:15:04;101342.09;;;18.24;100.00
42105;BME280;68365;51.472;5.712;2023-05-07T02:17:31;101332.59;;;18.23;100.00
42105;BME280;68365;51.472;5.712;2023-05-07T02:19:58;101332.22;;;18.26;100.00
42105;BME280;68365;51.472;5.712;2023-05-07T02:22:24;101331.59;;;18.24;100.00
42105;BME280;68365;51.472;5.712;2023-05-07T02:24:50;101328.97;;;18.24;100.00
42105;BME280;68365;51.472;5.712;2023-05-07T02:27:16;101326.72;;;18.21;100.00
42105;BME280;68365;51.472;5.712;2023-05-07T02:29:42;101341.47;;;18.22;100.00
42105;BME280;68365;51.472;5.712;2023-05-07T02:32:08;101338.66;;;18.23;100.00
42105;BME280;68365;51.472;5.712;2023-05-07T02:34:34;101340.69;;;18.21;100.00
42105;BME280;68365;51.472;5.712;2023-05-07T02:36:59;101341.47;;;18.22;100.00
42105;BME280;68365;51.472;5.712;2023-05-07T02:39:25;101344.13;;;18.22;100.00
42105;BME280;68365;51.472;5.712;2023-05-07T02:41:51;101349.38;;;18.22;100.00
42105;BME280;68365;51.472;5.712;2023-05-07T02:44:17;101346.13;;;18.20;100.00
42105;BME280;68365;51.472;5.712;2023-05-07T02:46:42;101348.75;;;18.20;100.00
42105;BME280;68365;51.472;5.712;2023-05-07T02:49:08;101348.56;;;18.21;100.00
42105;BME280;68365;51.472;5.712;2023-05-07T02:51:34;101345.50;;;18.18;100.00
42105;BME280;68365;51.472;5.712;2023-05-07T02:54:00;101345.31;;;18.19;100.00
42105;BME280;68365;51.472;5.712;2023-05-07T02:56:26;101350.56;;;18.19;100.00
42105;BME280;68365;51.472;5.712;2023-05-07T02:58:52;101347.34;;;18.17;100.00
42105;BME280;68365;51.472;5.712;2023-05-07T03:01:18;101346.13;;;18.20;100.00
42105;BME280;68365;51.472;5.712;2023-05-07T03:03:44;101348.75;;;18.20;100.00
42105;BME280;68365;51.472;5.712;2023-05-07T03:06:10;101341.06;;;18.18;100.00
42105;BME280;68365;51.472;5.712;2023-05-07T03:08:36;101340.44;;;18.16;100.00
42105;BME280;68365;51.472;5.712;2023-05-07T03:11:02;101356.00;;;18.18;100.00
42105;BME280;68365;51.472;5.712;2023-05-07T03:13:28;101344.88;;;18.16;100.00
42105;BME280;68365;51.472;5.712;2023-05-07T03:15:54;101345.69;;;18.16;100.00
42105;BME280;68365;51.472;5.712;2023-05-07T03:18:20;101350.75;;;18.18;100.00
42105;BME280;68365;51.472;5.712;2023-05-07T03:20:47;101344.09;;;18.15;100.00
42105;BME280;68365;51.472;5.712;2023-05-07T03:23:13;101348.31;;;18.16;100.00
42105;BME280;68365;51.472;5.712;2023-05-07T03:25:39;101353.75;;;18.15;100.00
42105;BME280;68365;51.472;5.712;2023-05-07T03:28:05;101333.75;;;18.14;100.00
42105;BME280;68365;51.472;5.712;2023-05-07T03:30:31;101337.00;;;18.16;100.00
42105;BME280;68365;51.472;5.712;2023-05-07T03:32:56;101331.13;;;18.14;100.00
42105;BME280;68365;51.472;5.712;2023-05-07T03:35:22;101332.75;;;18.15;100.00
42105;BME280;68365;51.472;5.712;2023-05-07T03:37:48;101332.75;;;18.15;100.00
42105;BME280;68365;51.472;5.712;2023-05-07T03:40:14;101332.13;;;18.13;100.00
42105;BME280;68365;51.472;5.712;2023-05-07T03:42:40;101331.13;;;18.14;100.00
42105;BME280;68365;51.472;5.712;2023-05-07T03:45:06;101328.50;;;18.14;100.00
42105;BME280;68365;51.472;5.712;2023-05-07T03:47:32;101317.56;;;18.10;100.00
42105;BME280;68365;51.472;5.712;2023-05-07T03:49:58;101318.59;;;18.09;100.00
42105;BME280;68365;51.472;5.712;2023-05-07T03:52:24;101322.63;;;18.12;100.00
42105;BME280;68365;51.472;5.712;2023-05-07T03:54:54;101321.84;;;18.11;100.00
42105;BME280;68365;51.472;5.712;2023-05-07T03:57:20;101331.31;;;18.12;100.00
42105;BME280;68365;51.472;5.712;2023-05-07T03:59:46;101329.91;;;18.09;100.00
42105;BME280;68365;51.472;5.712;2023-05-07T04:02:12;101335.16;;;18.09;100.00
42105;BME280;68365;51.472;5.712;2023-05-07T04:04:37;101337.59;;;18.11;100.00
42105;BME280;68365;51.472;5.712;2023-05-07T04:07:03;101339.78;;;18.07;100.00
42105;BME280;68365;51.472;5.712;2023-05-07T04:09:29;101344.88;;;18.09;100.00
42105;BME280;68365;51.472;5.712;2023-05-07T04:11:56;101337.78;;;18.09;100.00
42105;BME280;68365;51.472;5.712;2023-05-07T04:14:21;101341.22;;;18.10;100.00
42105;BME280;68365;51.472;5.712;2023-05-07T04:16:47;101353.53;;;18.09;100.00
42105;BME280;68365;51.472;5.712;2023-05-07T04:19:13;101347.50;;;18.09;100.00
42105;BME280;68365;51.472;5.712;2023-05-07T04:21:39;101349.28;;;18.08;100.00
42105;BME280;68365;51.472;5.712;2023-05-07T04:24:05;101350.91;;;18.09;100.00
42105;BME280;68365;51.472;5.712;2023-05-07T04:26:31;101352.75;;;18.09;100.00
42105;BME280;68365;51.472;5.712;2023-05-07T04:28:57;101364.06;;;18.09;100.00
42105;BME280;68365;51.472;5.712;2023-05-07T04:31:24;101360.41;;;18.10;100.00
42105;BME280;68365;51.472;5.712;2023-05-07T04:33:50;101354.53;;;18.08;100.00
42105;BME280;68365;51.472;5.712;2023-05-07T04:36:17;101368.28;;;18.10;100.00
42105;BME280;68365;51.472;5.712;2023-05-07T04:38:43;101356.97;;;18.10;100.00
42105;BME280;68365;51.472;5.712;2023-05-07T04:41:09;101358.19;;;18.07;100.00
42105;BME280;68365;51.472;5.712;2023-05-07T04:43:35;101355.38;;;18.09;100.00
42105;BME280;68365;51.472;5.712;2023-05-07T04:46:01;101351.91;;;18.08;100.00
42105;BME280;68365;51.472;5.712;2023-05-07T04:48:27;101354.53;;;18.08;100.00
42105;BME280;68365;51.472;5.712;2023-05-07T04:50:54;101358.19;;;18.07;100.00
42105;BME280;68365;51.472;5.712;2023-05-07T04:53:20;101358.81;;;18.09;100.00
42105;BME280;68365;51.472;5.712;2023-05-07T04:55:46;101354.53;;;18.08;100.00
42105;BME280;68365;51.472;5.712;2023-05-07T04:58:12;101351.50;;;18.05;100.00
42105;BME280;68365;51.472;5.712;2023-05-07T05:00:39;101351.09;;;18.08;100.00
42105;BME280;68365;51.472;5.712;2023-05-07T05:03:08;101362.41;;;18.08;100.00
42105;BME280;68365;51.472;5.712;2023-05-07T05:05:34;101360.41;;;18.10;100.00
42105;BME280;68365;51.472;5.712;2023-05-07T05:07:59;101363.25;;;18.09;100.00
42105;BME280;68365;51.472;5.712;2023-05-07T05:10:25;101370.91;;;18.10;100.00
42105;BME280;68365;51.472;5.712;2023-05-07T05:12:51;101369.31;;;18.09;100.00
42105;BME280;68365;51.472;5.712;2023-05-07T05:15:17;101377.81;;;18.12;100.00
42105;BME280;68365;51.472;5.712;2023-05-07T05:17:43;101373.53;;;18.10;100.00
42105;BME280;68365;51.472;5.712;2023-05-07T05:20:09;101376.16;;;18.10;100.00
42105;BME280;68365;51.472;5.712;2023-05-07T05:22:36;101376.16;;;18.10;100.00
42105;BME280;68365;51.472;5.712;2023-05-07T05:25:02;101373.75;;;18.09;100.00
42105;BME280;68365;51.472;5.712;2023-05-07T05:27:28;101377.38;;;18.08;100.00
42105;BME280;68365;51.472;5.712;2023-05-07T05:29:54;101379.81;;;18.09;100.00
42105;BME280;68365;51.472;5.712;2023-05-07T05:32:20;101381.03;;;18.07;100.00
42105;BME280;68365;51.472;5.712;2023-05-07T05:34:46;101385.44;;;18.06;100.00
42105;BME280;68365;51.472;5.712;2023-05-07T05:37:12;101386.06;;;18.08;100.00
42105;BME280;68365;51.472;5.712;2023-05-07T05:39:38;101383.44;;;18.08;100.00
42105;BME280;68365;51.472;5.712;2023-05-07T05:42:03;101386.06;;;18.08;100.00
42105;BME280;68365;51.472;5.712;2023-05-07T05:44:29;101392.94;;;18.09;100.00
42105;BME280;68365;51.472;5.712;2023-05-07T05:46:55;101392.94;;;18.09;100.00
42105;BME280;68365;51.472;5.712;2023-05-07T05:49:23;101386.91;;;18.09;100.00
42105;BME280;68365;51.472;5.712;2023-05-07T05:51:48;101389.53;;;18.09;100.00
42105;BME280;68365;51.472;5.712;2023-05-07T05:54:14;101398.22;;;18.09;100.00
42105;BME280;68365;51.472;5.712;2023-05-07T05:56:42;101397.41;;;18.09;100.00
42105;BME280;68365;51.472;5.712;2023-05-07T05:59:08;101397.59;;;18.07;100.00
42105;BME280;68365;51.472;5.712;2023-05-07T06:01:34;101405.28;;;18.09;100.00
42105;BME280;68365;51.472;5.712;2023-05-07T06:04:00;101393.94;;;18.08;100.00
42105;BME280;68365;51.472;5.712;2023-05-07T06:06:25;101401.03;;;18.08;100.00
42105;BME280;68365;51.472;5.712;2023-05-07T06:08:51;101396.38;;;18.10;100.00
42105;BME280;68365;51.472;5.712;2023-05-07T06:11:17;101394.97;;;18.07;100.00
42105;BME280;68365;51.472;5.712;2023-05-07T06:13:43;101400.84;;;18.09;100.00
42105;BME280;68365;51.472;5.712;2023-05-07T06:16:08;101401.63;;;18.10;100.00
42105;BME280;68365;51.472;5.712;2023-05-07T06:18:34;101396.56;;;18.08;100.00
42105;BME280;68365;51.472;5.712;2023-05-07T06:21:01;101400.66;;;18.11;100.00
42105;BME280;68365;51.472;5.712;2023-05-07T06:23:27;101401.28;;;18.13;100.00
42105;BME280;68365;51.472;5.712;2023-05-07T06:25:53;101401.28;;;18.13;100.00
42105;BME280;68365;51.472;5.712;2023-05-07T06:28:19;101403.06;;;18.13;100.00
42105;BME280;68365;51.472;5.712;2023-05-07T06:30:45;101401.06;;;18.15;100.00
42105;BME280;68365;51.472;5.712;2023-05-07T06:33:11;101402.69;;;18.16;100.00
42105;BME280;68365;51.472;5.712;2023-05-07T06:35:36;101403.69;;;18.15;100.00
42105;BME280;68365;51.472;5.712;2023-05-07T06:38:02;101405.31;;;18.16;100.00
42105;BME280;68365;51.472;5.712;2023-05-07T06:40:28;101406.31;;;18.15;100.00
42105;BME280;68365;51.472;5.712;2023-05-07T06:42:54;101416.00;;;18.14;100.00
42105;BME280;68365;51.472;5.712;2023-05-07T06:45:20;101408.13;;;18.14;100.00
42105;BME280;68365;51.472;5.712;2023-05-07T06:47:45;101412.41;;;18.15;100.00
42105;BME280;68365;51.472;5.712;2023-05-07T06:50:12;101421.28;;;18.14;100.00
42105;BME280;68365;51.472;5.712;2023-05-07T06:52:37;101420.84;;;18.10;100.00
42105;BME280;68365;51.472;5.712;2023-05-07T06:55:04;101423.72;;;18.16;100.00
42105;BME280;68365;51.472;5.712;2023-05-07T06:57:30;101428.97;;;18.16;100.00
42105;BME280;68365;51.472;5.712;2023-05-07T06:59:56;101418.47;;;18.16;100.00
42105;BME280;68365;51.472;5.712;2023-05-07T07:02:22;101415.03;;;18.15;100.00
42105;BME280;68365;51.472;5.712;2023-05-07T07:04:47;101424.50;;;18.16;100.00
42105;BME280;68365;51.472;5.712;2023-05-07T07:07:13;101430.56;;;18.17;100.00
42105;BME280;68365;51.472;5.712;2023-05-07T07:09:39;101414.41;;;18.13;100.00
42105;BME280;68365;51.472;5.712;2023-05-07T07:12:05;101418.28;;;18.17;100.00
42105;BME280;68365;51.472;5.712;2023-05-07T07:14:31;101428.78;;;18.17;100.00
42105;BME280;68365;51.472;5.712;2023-05-07T07:16:56;101421.88;;;18.16;100.00
42105;BME280;68365;51.472;5.712;2023-05-07T07:19:22;101420.06;;;18.17;100.00
42105;BME280;68365;51.472;5.712;2023-05-07T07:21:48;101418.28;;;18.17;100.00
42105;BME280;68365;51.472;5.712;2023-05-07T07:24:14;101423.31;;;18.19;100.00
42105;BME280;68365;51.472;5.712;2023-05-07T07:26:46;101425.75;;;18.20;100.00
42105;BME280;68365;51.472;5.712;2023-05-07T07:29:13;101440.53;;;18.21;100.00
42105;BME280;68365;51.472;5.712;2023-05-07T07:31:42;101434.88;;;18.24;100.00
42105;BME280;68365;51.472;5.712;2023-05-07T07:49:03;101434.91;;;18.31;100.00
42105;BME280;68365;51.472;5.712;2023-05-07T07:51:29;101438.78;;;18.35;100.00
42105;BME280;68365;51.472;5.712;2023-05-07T07:53:55;101437.53;;;18.31;100.00
42105;BME280;68365;51.472;5.712;2023-05-07T07:56:23;101431.88;;;18.27;100.00
42105;BME280;68365;51.472;5.712;2023-05-07T07:58:49;101433.06;;;18.25;100.00
42105;BME280;68365;51.472;5.712;2023-05-07T08:01:15;101429.63;;;18.24;100.00
42105;BME280;68365;51.472;5.712;2023-05-07T08:03:42;101441.03;;;18.38;100.00
42105;BME280;68365;51.472;5.712;2023-05-07T08:06:07;101431.28;;;18.32;100.00
42105;BME280;68365;51.472;5.712;2023-05-07T08:08:33;101441.81;;;18.32;100.00
42105;BME280;68365;51.472;5.712;2023-05-07T08:10:59;101445.63;;;18.29;100.00
42105;BME280;68365;51.472;5.712;2023-05-07T08:13:25;101445.44;;;18.31;100.00
42105;BME280;68365;51.472;5.712;2023-05-07T08:15:51;101442.78;;;18.31;100.00
42105;BME280;68365;51.472;5.712;2023-05-07T08:18:16;101440.16;;;18.31;100.00
42105;BME280;68365;51.472;5.712;2023-05-07T08:20:42;101441.00;;;18.32;100.00
42105;BME280;68365;51.472;5.712;2023-05-07T08:23:11;101436.38;;;18.34;100.00
42105;BME280;68365;51.472;5.712;2023-05-07T08:25:37;101444.03;;;18.35;100.00
42105;BME280;68365;51.472;5.712;2023-05-07T08:28:03;101440.59;;;18.35;100.00
42105;BME280;68365;51.472;5.712;2023-05-07T08:30:29;101450.75;;;18.38;100.00
42105;BME280;68365;51.472;5.712;2023-05-07T08:32:55;101457.44;;;18.40;100.00
42105;BME280;68365;51.472;5.712;2023-05-07T08:35:21;101458.22;;;18.41;100.00
42105;BME280;68365;51.472;5.712;2023-05-07T08:37:47;101451.75;;;18.43;100.00
42105;BME280;68365;51.472;5.712;2023-05-07T08:40:12;101446.31;;;18.45;100.00
42105;BME280;68365;51.472;5.712;2023-05-07T08:42:40;101451.13;;;18.35;100.00
42105;BME280;68365;51.472;5.712;2023-05-07T08:45:10;101456.56;;;18.33;100.00
42105;BME280;68365;51.472;5.712;2023-05-07T08:47:46;101454.16;;;18.32;100.00
42105;BME280;68365;51.472;5.712;2023-05-07T08:50:12;101458.56;;;18.31;100.00
42105;BME280;68365;51.472;5.712;2023-05-07T08:52:40;101449.44;;;18.27;100.00
42105;BME280;68365;51.472;5.712;2023-05-07T08:55:07;101458.56;;;18.31;100.00
42105;BME280;68365;51.472;5.712;2023-05-07T08:57:33;101460.81;;;18.34;100.00
42105;BME280;68365;51.472;5.712;2023-05-07T08:59:59;101461.81;;;18.33;100.00
42105;BME280;68365;51.472;5.712;2023-05-07T09:02:25;101464.88;;;18.37;100.00
42105;BME280;68365;51.472;5.712;2023-05-07T09:04:51;101459.81;;;18.35;100.00
42105;BME280;68365;51.472;5.712;2023-05-07T09:07:19;101462.22;;;18.30;100.00
42105;BME280;68365;51.472;5.712;2023-05-07T09:09:45;101462.22;;;18.30;100.00
42105;BME280;68365;51.472;5.712;2023-05-07T09:12:11;101464.66;;;18.32;100.00
42105;BME280;68365;51.472;5.712;2023-05-07T09:14:38;101466.25;;;18.33;100.00
42105;BME280;68365;51.472;5.712;2023-05-07T09:17:04;101464.66;;;18.32;100.00
42105;BME280;68365;51.472;5.712;2023-05-07T09:19:30;101464.88;;;18.37;100.00
42105;BME280;68365;51.472;5.712;2023-05-07T09:22:01;101462.66;;;18.34;100.00
42105;BME280;68365;51.472;5.712;2023-05-07T09:24:28;101462.66;;;18.34;100.00
42105;BME280;68365;51.472;5.712;2023-05-07T09:26:59;101459.81;;;18.35;100.00
42105;BME280;68365;51.472;5.712;2023-05-07T09:29:27;101461.63;;;18.35;100.00
42105;BME280;68365;51.472;5.712;2023-05-07T09:32:04;101466.09;;;18.34;100.00
42105;BME280;68365;51.472;5.712;2023-05-07T09:34:30;101467.06;;;18.33;100.00
42105;BME280;68365;51.472;5.712;2023-05-07T09:37:01;101468.72;;;18.34;100.00
42105;BME280;68365;51.472;5.712;2023-05-07T09:39:41;101465.91;;;18.36;100.00
42105;BME280;68365;51.472;5.712;2023-05-07T09:42:07;101458.00;;;18.36;100.00
42105;BME280;68365;51.472;5.712;2023-05-07T09:44:34;101470.75;;;18.39;100.00
42105;BME280;68365;51.472;5.712;2023-05-07T09:47:04;101464.69;;;18.38;100.00
42105;BME280;68365;51.472;5.712;2023-05-07T09:49:30;101464.50;;;18.40;100.00
42105;BME280;68365;51.472;5.712;2023-05-07T09:52:00;101465.31;;;18.40;100.00
42105;BME280;68365;51.472;5.712;2023-05-07T09:54:27;101458.03;;;18.42;100.00
42105;BME280;68365;51.472;5.712;2023-05-07T09:56:57;101459.66;;;18.43;100.00
42105;BME280;68365;51.472;5.712;2023-05-07T09:59:24;101457.03;;;18.43;100.00
42105;BME280;68365;51.472;5.712;2023-05-07T10:01:52;101455.41;;;18.42;100.00
42105;BME280;68365;51.472;5.712;2023-05-07T10:04:22;101464.53;;;18.46;100.00
42105;BME280;68365;51.472;5.712;2023-05-07T10:06:48;101460.53;;;18.50;100.00
42105;BME280;68365;51.472;5.712;2023-05-07T10:09:15;101460.53;;;18.50;100.00
42105;BME280;68365;51.472;5.712;2023-05-07T10:11:41;101467.38;;;18.52;100.00
42105;BME280;68365;51.472;5.712;2023-05-07T10:14:07;101462.97;;;18.52;100.00
42105;BME280;68365;51.472;5.712;2023-05-07T10:16:35;101461.75;;;18.55;100.00
42105;BME280;68365;51.472;5.712;2023-05-07T10:19:06;101458.31;;;18.54;100.00
42105;BME280;68365;51.472;5.712;2023-05-07T10:21:37;101465.19;;;18.55;100.00
42105;BME280;68365;51.472;5.712;2023-05-07T10:24:10;101458.50;;;18.53;100.00
42105;BME280;68365;51.472;5.712;2023-05-07T10:26:46;101460.94;;;18.54;100.00
42105;BME280;68365;51.472;5.712;2023-05-07T10:29:32;101454.47;;;18.57;100.00
42105;BME280;68365;51.472;5.712;2023-05-07T10:32:30;101455.53;;;18.62;100.00
42105;BME280;68365;51.472;5.712;2023-05-07T10:35:03;101460.16;;;18.60;100.00
42105;BME280;68365;51.472;5.712;2023-05-07T10:37:30;101463.00;;;18.59;100.00
42105;BME280;68365;51.472;5.712;2023-05-07T10:39:56;101465.63;;;18.59;100.00
42105;BME280;68365;51.472;5.712;2023-05-07T10:42:23;101464.59;;;18.60;100.00
42105;BME280;68365;51.472;5.712;2023-05-07T10:44:49;101470.69;;;18.60;100.00
42105;BME280;68365;51.472;5.712;2023-05-07T10:47:16;101466.06;;;18.62;100.00
42105;BME280;68365;51.472;5.712;2023-05-07T10:52:21;101467.06;;;18.68;100.00
42105;BME280;68365;51.472;5.712;2023-05-07T10:54:47;101468.72;;;18.69;100.00
42105;BME280;68365;51.472;5.712;2023-05-07T10:59:57;101469.94;;;18.73;100.00
42105;BME280;68365;51.472;5.712;2023-05-07T11:02:23;101468.50;;;18.70;100.00
42105;BME280;68365;51.472;5.712;2023-05-07T11:05:22;101465.34;;;18.82;100.00
42105;BME280;68365;51.472;5.712;2023-05-07T11:07:59;101461.44;;;18.78;100.00
42105;BME280;68365;51.472;5.712;2023-05-07T11:13:14;101452.38;;;18.80;100.00
42105;BME280;68365;51.472;5.712;2023-05-07T11:15:46;101462.72;;;18.82;100.00
42105;BME280;68365;51.472;5.712;2023-05-07T11:18:38;101452.81;;;18.84;100.00
42105;BME280;68365;51.472;5.712;2023-05-07T11:21:11;101455.63;;;18.82;100.00
42105;BME280;68365;51.472;5.712;2023-05-07T11:26:09;101455.06;;;18.87;100.00
42105;BME280;68365;51.472;5.712;2023-05-07T11:28:53;101443.09;;;18.84;100.00
42105;BME280;68365;51.472;5.712;2023-05-07T11:35:02;101459.50;;;18.86;100.00
42105;BME280;68365;51.472;5.712;2023-05-07T11:37:49;101455.63;;;18.82;100.00
42105;BME280;68365;51.472;5.712;2023-05-07T11:40:15;101456.25;;;18.84;100.00
42105;BME280;68365;51.472;5.712;2023-05-07T11:42:41;101453.44;;;18.86;100.00
42105;BME280;68365;51.472;5.712;2023-05-07T11:45:10;101461.94;;;18.88;100.00
42105;BME280;68365;51.472;5.712;2023-05-07T11:47:35;101467.59;;;18.85;100.00
42105;BME280;68365;51.472;5.712;2023-05-07T11:50:07;101472.66;;;18.86;100.00
42105;BME280;68365;51.472;5.712;2023-05-07T11:52:33;101467.75;;;18.77;100.00
42105;BME280;68365;51.472;5.712;2023-05-07T11:55:01;101469.19;;;18.79;100.00
42105;BME280;68365;51.472;5.712;2023-05-07T11:57:27;101469.94;;;18.73;100.00
42105;BME280;68365;51.472;5.712;2023-05-07T11:59:58;101462.66;;;18.75;100.00
42105;BME280;68365;51.472;5.712;2023-05-07T12:02:25;101465.09;;;18.77;100.00
42105;BME280;68365;51.472;5.712;2023-05-07T12:04:52;101471.16;;;18.77;100.00
42105;BME280;68365;51.472;5.712;2023-05-07T12:07:18;101471.81;;;18.79;100.00
42105;BME280;68365;51.472;5.712;2023-05-07T12:09:45;101469.13;;;18.73;100.00
42105;BME280;68365;51.472;5.712;2023-05-07T12:12:11;101462.63;;;18.68;100.00
42105;BME280;68365;51.472;5.712;2023-05-07T12:14:45;101467.06;;;18.68;100.00
42105;BME280;68365;51.472;5.712;2023-05-07T12:17:13;101466.88;;;18.69;100.00
42105;BME280;68365;51.472;5.712;2023-05-07T12:19:42;101467.47;;;18.65;100.00
42105;BME280;68365;51.472;5.712;2023-05-07T12:22:09;101468.88;;;18.67;100.00
42105;BME280;68365;51.472;5.712;2023-05-07T12:24:46;101465.06;;;18.70;100.00
42105;BME280;68365;51.472;5.712;2023-05-07T12:27:14;101461.81;;;18.68;100.00
42105;BME280;68365;51.472;5.712;2023-05-07T12:29:44;101469.50;;;18.69;100.00
42105;BME280;68365;51.472;5.712;2023-05-07T12:32:18;101472.94;;;18.70;100.00
42105;BME280;68365;51.472;5.712;2023-05-07T12:34:45;101471.53;;;18.67;100.00
42105;BME280;68365;51.472;5.712;2023-05-07T12:37:12;101473.72;;;18.64;100.00
42105;BME280;68365;51.472;5.712;2023-05-07T12:39:44;101472.91;;;18.63;100.00
42105;BME280;68365;51.472;5.712;2023-05-07T12:42:21;101471.50;;;18.61;100.00
42105;BME280;68365;51.472;5.712;2023-05-07T12:44:51;101476.13;;;18.59;100.00
42105;BME280;68365;51.472;5.712;2023-05-07T12:47:17;101480.38;;;18.60;100.00
42105;BME280;68365;51.472;5.712;2023-05-07T12:49:43;101486.25;;;18.62;100.00
42105;BME280;68365;51.472;5.712;2023-05-07T12:52:11;101484.03;;;18.59;100.00
42105;BME280;68365;51.472;5.712;2023-05-07T12:54:38;101492.53;;;18.61;100.00
42105;BME280;68365;51.472;5.712;2023-05-07T12:57:10;101497.34;;;18.57;100.00
42105;BME280;68365;51.472;5.712;2023-05-07T12:59:41;101507.88;;;18.57;100.00
42105;BME280;68365;51.472;5.712;2023-05-07T13:02:07;101522.03;;;18.56;100.00
42105;BME280;68365;51.472;5.712;2023-05-07T13:04:34;101529.31;;;18.54;100.00
42105;BME280;68365;51.472;5.712;2023-05-07T13:07:00;101544.25;;;18.54;100.00
42105;BME280;68365;51.472;5.712;2023-05-07T13:09:26;101551.50;;;18.52;100.00